createdAt,value
2023-03-12T00:01:13.785Z,24.38
2023-03-12T00:04:20.319Z,17.90
2023-03-12T00:07:26.464Z,38.63
2023-03-12T00:10:31.191Z,31.43
2023-03-12T00:13:34.479Z,51.20
2023-03-12T00:16:37.647Z,38.72
2023-03-12T00:19:40.571Z,22.67
2023-03-12T00:22:44.380Z,32.35
2023-03-12T00:25:48.338Z,26.35
2023-03-12T00:28:52.616Z,12.30
2023-03-12T00:31:56.939Z,27.92
2023-03-12T00:35:01.110Z,39.05
2023-03-12T00:38:04.350Z,36.55
2023-03-12T00:41:07.738Z,15.95
2023-03-12T00:44:11.828Z,22.75
2023-03-12T00:47:14.965Z,42.10
2023-03-12T00:50:18.854Z,36.65
2023-03-12T00:53:22.650Z,32.53
2023-03-12T00:56:26.068Z,41.47
2023-03-12T00:59:29.381Z,35.60
2023-03-12T01:02:33.167Z,42.95
2023-03-12T01:05:38.386Z,33.28
2023-03-12T01:08:42.032Z,36.88
2023-03-12T01:11:45.088Z,31.90
2023-03-12T01:14:48.192Z,45.95
2023-03-12T01:17:51.811Z,45.40
2023-03-12T01:20:55.723Z,38.45
2023-03-12T01:23:59.349Z,28.75
2023-03-12T01:27:03.474Z,31.05
2023-03-12T01:30:07.634Z,36.60
2023-03-12T01:33:11.100Z,42.05
2023-03-12T01:36:22.091Z,42.75
2023-03-12T01:39:26.805Z,30.52
2023-03-12T01:42:30.375Z,42.65
2023-03-12T01:45:52.989Z,23.83
2023-03-12T01:49:04.443Z,45.13
2023-03-12T01:52:12.078Z,26.33
2023-03-12T01:55:26.157Z,32.53
2023-03-12T01:58:33.271Z,30.75
2023-03-12T02:01:36.568Z,33.13
2023-03-12T02:04:40.858Z,33.33
2023-03-12T02:07:45.236Z,41.40
2023-03-12T02:10:49.090Z,14.00
2023-03-12T02:13:53.210Z,33.40
2023-03-12T02:16:57.632Z,15.20
2023-03-12T02:20:13.076Z,31.90
2023-03-12T02:23:38.247Z,35.45
2023-03-12T02:26:41.862Z,32.28
2023-03-12T02:29:47.286Z,20.00
2023-03-12T02:32:52.698Z,37.15
2023-03-12T02:35:56.498Z,28.80
2023-03-12T02:39:01.654Z,24.90
2023-03-12T02:42:05.293Z,22.67
2023-03-12T02:45:08.741Z,32.28
2023-03-12T02:48:11.735Z,29.15
2023-03-12T02:51:14.927Z,25.67
2023-03-12T02:54:20.755Z,22.75
2023-03-12T02:57:24.881Z,21.13
2023-03-12T03:00:28.748Z,20.40
2023-03-12T03:03:31.871Z,16.45
2023-03-12T03:06:37.408Z,19.33
2023-03-12T03:09:41.737Z,18.05
2023-03-12T03:12:46.103Z,15.57
2023-03-12T03:15:50.258Z,12.90
2023-03-12T03:18:54.274Z,18.55
2023-03-12T03:21:58.108Z,15.77
2023-03-12T03:25:02.396Z,24.88
2023-03-12T03:28:06.233Z,8.30
2023-03-12T03:31:11.260Z,17.83
2023-03-12T03:34:16.736Z,11.63
2023-03-12T03:37:20.197Z,13.85
2023-03-12T03:40:23.874Z,14.32
2023-03-12T03:43:28.821Z,13.73
2023-03-12T03:46:32.845Z,13.20
2023-03-12T03:52:44.612Z,13.93
2023-03-12T03:55:48.840Z,17.15
2023-03-12T03:58:52.260Z,11.30
2023-03-12T04:01:57.638Z,17.98
2023-03-12T04:05:01.718Z,16.10
2023-03-12T04:08:07.253Z,18.35
2023-03-12T04:11:19.210Z,26.50
2023-03-12T04:14:23.341Z,15.07
2023-03-12T04:17:26.715Z,12.23
2023-03-12T04:20:32.719Z,10.85
2023-03-12T04:23:36.788Z,15.05
2023-03-12T04:26:40.772Z,14.90
2023-03-12T04:29:45.862Z,17.13
2023-03-12T04:32:50.682Z,27.00
2023-03-12T04:35:54.861Z,15.32
2023-03-12T04:38:59.277Z,14.93
2023-03-12T04:42:07.674Z,11.63
2023-03-12T04:45:13.327Z,4.75
2023-03-12T04:48:21.001Z,5.53
2023-03-12T04:51:27.466Z,14.75
2023-03-12T04:54:32.536Z,10.00
2023-03-12T04:57:37.349Z,9.95
2023-03-12T05:00:42.181Z,3.08
2023-03-12T05:03:46.502Z,11.35
2023-03-12T05:06:50.667Z,11.98
2023-03-12T05:09:54.751Z,8.98
2023-03-12T05:12:59.362Z,4.82
2023-03-12T05:16:04.382Z,7.47
2023-03-12T05:19:08.623Z,9.27
2023-03-12T05:22:13.110Z,7.22
2023-03-12T05:25:17.661Z,8.60
2023-03-12T05:28:22.581Z,4.13
2023-03-12T05:31:26.713Z,5.32
2023-03-12T05:34:31.733Z,6.63
2023-03-12T05:37:37.110Z,12.18
2023-03-12T05:40:41.048Z,5.68
2023-03-12T05:43:44.587Z,6.57
2023-03-12T05:46:48.692Z,7.65
2023-03-12T05:49:53.549Z,7.78
2023-03-12T05:52:58.538Z,10.65
2023-03-12T05:56:07.574Z,5.05
2023-03-12T05:59:13.802Z,6.13
2023-03-12T06:02:17.918Z,6.03
2023-03-12T06:05:21.538Z,6.43
2023-03-12T06:08:26.169Z,7.68
2023-03-12T06:11:30.779Z,10.52
2023-03-12T06:14:35.819Z,5.88
2023-03-12T06:17:40.092Z,12.77
2023-03-12T06:20:44.159Z,7.90
2023-03-12T06:23:49.368Z,9.05
2023-03-12T06:27:17.568Z,8.52
2023-03-12T06:30:21.596Z,6.55
2023-03-12T06:33:24.822Z,4.47
2023-03-12T06:36:27.969Z,7.88
2023-03-12T06:39:31.707Z,5.43
2023-03-12T06:42:35.301Z,6.82
2023-03-12T06:45:38.774Z,12.52
2023-03-12T06:48:42.662Z,5.35
2023-03-12T06:51:45.701Z,4.60
2023-03-12T06:54:49.304Z,4.43
2023-03-12T06:57:52.888Z,5.18
2023-03-12T07:00:56.408Z,4.07
2023-03-12T07:04:00.303Z,10.40
2023-03-12T07:07:03.722Z,2.88
2023-03-12T07:10:07.518Z,7.85
2023-03-12T07:13:11.146Z,4.80
2023-03-12T07:16:14.305Z,5.05
2023-03-12T07:19:20.307Z,4.00
2023-03-12T07:22:23.673Z,2.78
2023-03-12T07:25:28.029Z,8.93
2023-03-12T07:28:31.660Z,1.17
2023-03-12T07:31:35.377Z,2.95
2023-03-12T07:34:38.649Z,4.82
2023-03-12T07:37:42.550Z,2.47
2023-03-12T07:40:45.664Z,5.55
2023-03-12T07:43:49.415Z,3.92
2023-03-12T07:46:53.476Z,3.20
2023-03-12T07:49:57.085Z,7.50
2023-03-12T07:53:00.695Z,2.78
2023-03-12T07:56:04.412Z,3.97
2023-03-12T07:59:08.223Z,6.15
2023-03-12T08:02:13.367Z,3.17
2023-03-12T08:05:17.357Z,5.50
2023-03-12T08:08:20.836Z,3.83
2023-03-12T08:11:24.338Z,7.65
2023-03-12T08:14:32.671Z,4.13
2023-03-12T08:17:35.771Z,4.05
2023-03-12T08:20:38.773Z,2.55
2023-03-12T08:23:41.863Z,4.47
2023-03-12T08:26:46.858Z,3.88
2023-03-12T08:29:50.435Z,6.13
2023-03-12T08:32:54.272Z,6.35
2023-03-12T08:35:58.676Z,6.43
2023-03-12T08:39:03.686Z,6.60
2023-03-12T08:42:08.612Z,4.80
2023-03-12T08:45:14.240Z,5.10
2023-03-12T08:48:18.679Z,5.65
2023-03-12T08:51:22.999Z,8.00
2023-03-12T08:54:26.163Z,9.75
2023-03-12T08:57:30.781Z,5.40
2023-03-12T09:00:35.029Z,8.23
2023-03-12T09:03:39.642Z,12.77
2023-03-12T09:06:44.230Z,5.40
2023-03-12T09:09:47.763Z,6.55
2023-03-12T09:12:51.549Z,11.60
2023-03-12T09:16:01.074Z,8.73
2023-03-12T09:19:05.172Z,7.55
2023-03-12T09:22:09.235Z,6.97
2023-03-12T09:25:13.336Z,5.90
2023-03-12T09:28:17.458Z,10.23
2023-03-12T09:31:21.352Z,5.25
2023-03-12T09:34:25.419Z,6.78
2023-03-12T09:37:29.219Z,3.85
2023-03-12T09:40:37.625Z,9.80
2023-03-12T09:43:50.248Z,7.30
2023-03-12T09:47:01.979Z,5.30
2023-03-12T09:57:15.334Z,4.47
2023-03-12T10:00:22.432Z,8.90
2023-03-12T10:03:37.753Z,7.88
2023-03-12T10:07:14.596Z,3.55
2023-03-12T10:10:41.074Z,11.45
2023-03-12T10:13:59.226Z,5.03
2023-03-12T10:17:20.938Z,4.47
2023-03-12T10:20:52.295Z,4.90
2023-03-12T10:24:17.798Z,5.40
2023-03-12T10:27:25.017Z,2.88
2023-03-12T10:33:43.966Z,2.63
2023-03-12T10:36:47.994Z,4.43
2023-03-12T10:39:54.139Z,2.35
2023-03-12T10:42:58.036Z,2.95
2023-03-12T10:46:34.304Z,3.30
2023-03-12T10:49:38.514Z,5.13
2023-03-12T10:52:47.289Z,3.72
2023-03-12T10:56:01.052Z,3.65
2023-03-12T10:59:22.089Z,1.85
2023-03-12T11:02:37.308Z,6.30
2023-03-12T11:05:52.714Z,5.32
2023-03-12T11:09:19.633Z,3.75
2023-03-12T11:12:29.700Z,2.28
2023-03-12T11:15:42.974Z,4.32
2023-03-12T11:18:57.016Z,5.93
2023-03-12T11:22:09.074Z,4.43
2023-03-12T11:25:25.948Z,5.55
2023-03-12T11:28:40.353Z,4.47
2023-03-12T11:31:51.422Z,4.03
2023-03-12T11:34:55.970Z,4.10
2023-03-12T11:38:22.424Z,3.80
2023-03-12T11:41:53.505Z,5.32
2023-03-12T11:45:21.577Z,3.22
2023-03-12T11:48:41.759Z,6.80
2023-03-12T11:52:08.308Z,5.20
2023-03-12T11:55:31.196Z,2.90
2023-03-12T11:58:46.060Z,4.60
2023-03-12T12:02:34.779Z,4.07
2023-03-12T12:05:48.088Z,3.88
2023-03-12T12:09:26.424Z,2.95
2023-03-12T12:13:11.329Z,3.15
2023-03-12T12:16:35.675Z,7.88
2023-03-12T12:20:14.815Z,1.60
2023-03-12T12:23:35.462Z,5.18
2023-03-12T12:26:55.653Z,2.72
2023-03-12T12:30:27.065Z,2.95
2023-03-12T12:33:51.631Z,1.83
2023-03-12T12:37:13.977Z,2.38
2023-03-12T12:40:27.514Z,2.85
2023-03-12T12:43:39.004Z,3.92
2023-03-12T12:46:51.887Z,3.05
2023-03-12T12:50:03.718Z,3.15
2023-03-12T12:53:44.806Z,4.47
2023-03-12T12:56:56.821Z,1.60
2023-03-12T13:00:39.430Z,2.75
2023-03-12T13:03:48.490Z,2.70
2023-03-12T13:06:56.466Z,6.13
2023-03-12T13:10:08.677Z,1.58
2023-03-12T13:13:25.558Z,3.55
2023-03-12T13:16:46.904Z,5.13
2023-03-12T13:20:01.411Z,2.35
2023-03-12T13:23:21.495Z,4.15
2023-03-12T13:26:35.621Z,4.55
2023-03-12T13:29:46.618Z,2.35
2023-03-12T13:32:53.415Z,2.90
2023-03-12T13:36:14.718Z,2.25
2023-03-12T13:39:30.047Z,3.33
2023-03-12T13:42:43.301Z,2.42
2023-03-12T13:46:09.348Z,4.82
2023-03-12T13:49:15.967Z,11.35
2023-03-12T13:52:21.989Z,2.65
2023-03-12T13:55:29.947Z,3.40
2023-03-12T13:58:43.052Z,2.17
2023-03-12T14:01:54.827Z,6.38
2023-03-12T14:05:15.200Z,3.28
2023-03-12T14:08:35.906Z,3.65
2023-03-12T14:11:46.982Z,8.02
2023-03-12T14:15:24.801Z,4.57
2023-03-12T14:18:36.164Z,2.42
2023-03-12T14:21:47.366Z,6.97
2023-03-12T14:25:06.531Z,3.72
2023-03-12T14:28:25.868Z,5.18
2023-03-12T14:31:33.641Z,4.82
2023-03-12T14:34:51.551Z,2.25
2023-03-12T14:38:00.677Z,2.42
2023-03-12T14:41:15.681Z,4.10
2023-03-12T14:44:28.989Z,4.10
2023-03-12T14:47:45.285Z,4.00
2023-03-12T14:50:53.850Z,4.28
2023-03-12T14:54:06.422Z,11.02
2023-03-12T14:57:22.121Z,3.13
2023-03-12T15:00:30.526Z,1.40
2023-03-12T15:03:47.897Z,2.92
2023-03-12T15:07:05.850Z,2.70
2023-03-12T15:10:26.384Z,3.28
2023-03-12T15:13:33.205Z,2.10
2023-03-12T15:16:38.120Z,2.30
2023-03-12T15:19:41.495Z,1.90
2023-03-12T15:22:45.143Z,2.58
2023-03-12T15:25:48.824Z,1.77
2023-03-12T15:29:29.906Z,3.90
2023-03-12T15:32:36.506Z,2.92
2023-03-12T15:35:47.069Z,2.30
2023-03-12T15:38:57.513Z,3.22
2023-03-12T15:42:11.672Z,2.45
2023-03-12T15:45:25.640Z,2.78
2023-03-12T15:48:42.416Z,3.40
2023-03-12T15:52:05.785Z,3.28
2023-03-12T15:55:17.274Z,3.45
2023-03-12T15:58:36.157Z,1.42
2023-03-12T16:01:53.785Z,1.73
2023-03-12T16:04:59.422Z,4.28
2023-03-12T16:08:12.939Z,2.95
2023-03-12T16:11:25.483Z,1.92
2023-03-12T16:14:37.964Z,2.05
2023-03-12T16:17:43.233Z,4.28
2023-03-12T16:20:49.310Z,1.65
2023-03-12T16:23:54.716Z,1.98
2023-03-12T16:27:01.122Z,2.45
2023-03-12T16:30:07.943Z,5.90
2023-03-12T16:33:23.170Z,1.92
2023-03-12T16:36:29.100Z,3.75
2023-03-12T16:39:34.464Z,2.60
2023-03-12T16:42:40.024Z,3.05
2023-03-12T16:45:48.402Z,3.35
2023-03-12T16:48:54.659Z,3.35
2023-03-12T16:52:00.273Z,1.77
2023-03-12T16:55:06.066Z,2.20
2023-03-12T16:58:14.737Z,2.03
2023-03-12T17:01:23.062Z,1.63
2023-03-12T17:04:27.874Z,2.15
2023-03-12T17:07:32.802Z,1.70
2023-03-12T17:10:37.159Z,5.50
2023-03-12T17:13:42.692Z,1.90
2023-03-12T17:16:47.841Z,2.05
2023-03-12T17:19:56.142Z,1.95
2023-03-12T17:23:00.572Z,1.90
2023-03-12T17:26:06.231Z,1.27
2023-03-12T17:29:11.102Z,2.28
2023-03-12T17:32:15.436Z,1.85
2023-03-12T17:35:20.768Z,2.17
2023-03-12T17:38:25.308Z,1.35
2023-03-12T17:41:29.787Z,3.70
2023-03-12T17:44:36.195Z,1.63
2023-03-12T17:47:41.109Z,1.95
2023-03-12T17:50:46.891Z,7.28
2023-03-12T17:53:51.894Z,4.82
2023-03-12T17:56:56.643Z,2.25
2023-03-12T18:00:01.217Z,3.45
2023-03-12T18:03:16.042Z,1.20
2023-03-12T18:06:20.518Z,1.50
2023-03-12T18:09:24.806Z,1.75
2023-03-12T18:12:29.662Z,2.25
2023-03-12T18:15:35.074Z,1.35
2023-03-12T18:18:39.968Z,1.20
2023-03-12T18:21:44.800Z,2.65
2023-03-12T18:24:49.430Z,1.42
2023-03-12T18:27:56.663Z,1.35
2023-03-12T18:31:01.653Z,2.08
2023-03-12T18:34:06.889Z,2.42
2023-03-12T18:37:11.665Z,1.85
2023-03-12T18:40:16.828Z,1.92
2023-03-12T18:43:22.026Z,2.10
2023-03-12T18:46:26.994Z,1.10
2023-03-12T18:49:30.927Z,1.70
2023-03-12T18:52:36.200Z,1.00
2023-03-12T18:55:40.189Z,1.50
2023-03-12T18:58:44.616Z,1.30
2023-03-12T19:01:48.550Z,1.73
2023-03-12T19:04:55.946Z,1.52
2023-03-12T19:08:01.092Z,1.98
2023-03-12T19:11:14.230Z,1.73
2023-03-12T19:14:18.823Z,2.38
2023-03-12T19:17:25.203Z,4.80
2023-03-12T19:20:30.948Z,1.90
2023-03-12T19:23:40.478Z,1.30
2023-03-12T19:26:50.290Z,3.45
2023-03-12T19:30:00.633Z,1.33
2023-03-12T19:33:11.831Z,1.60
2023-03-12T19:36:21.562Z,0.75
2023-03-12T19:39:32.532Z,1.08
2023-03-12T19:42:43.517Z,1.52
2023-03-12T19:45:53.023Z,1.67
2023-03-12T19:49:02.848Z,3.40
2023-03-12T19:52:13.569Z,2.10
2023-03-12T19:55:24.869Z,3.17
2023-03-12T19:58:33.185Z,2.88
2023-03-12T20:01:44.279Z,2.28
2023-03-12T20:04:54.316Z,2.15
2023-03-12T20:08:01.706Z,2.35
2023-03-12T20:11:12.166Z,3.08
2023-03-12T20:14:21.531Z,1.52
2023-03-12T20:17:30.637Z,3.88
2023-03-12T20:20:40.493Z,8.30
2023-03-12T20:23:52.148Z,9.88
2023-03-12T20:27:01.032Z,5.55
2023-03-12T20:30:11.081Z,9.07
2023-03-12T20:33:20.302Z,3.85
2023-03-12T20:36:29.242Z,5.07
2023-03-12T20:39:37.940Z,4.65
2023-03-12T20:42:48.003Z,1.67
2023-03-12T20:45:58.119Z,1.10
2023-03-12T20:49:09.359Z,2.05
2023-03-12T20:52:18.791Z,4.68
2023-03-12T20:55:28.232Z,2.38
2023-03-12T20:58:38.819Z,2.40
2023-03-12T21:01:49.788Z,4.30
2023-03-12T21:05:00.253Z,6.32
2023-03-12T21:08:10.300Z,3.55
2023-03-12T21:11:21.181Z,5.03
2023-03-12T21:14:30.217Z,4.47
2023-03-12T21:17:41.606Z,3.08
2023-03-12T21:20:53.004Z,2.33
2023-03-12T21:24:02.032Z,2.17
2023-03-12T21:27:16.816Z,2.95
2023-03-12T21:30:29.435Z,1.70
2023-03-12T21:33:39.804Z,2.58
2023-03-12T21:36:48.596Z,1.75
2023-03-12T21:40:03.604Z,0.93
2023-03-12T21:43:13.824Z,4.35
2023-03-12T21:46:31.264Z,4.47
2023-03-12T21:49:44.082Z,5.05
2023-03-12T21:52:57.410Z,2.65
2023-03-12T21:56:10.851Z,1.45
2023-03-12T21:59:19.664Z,2.40
2023-03-12T22:02:29.219Z,4.53
2023-03-12T22:05:37.934Z,4.60
2023-03-12T22:08:46.979Z,3.80
2023-03-12T22:11:55.693Z,2.65
2023-03-12T22:15:05.245Z,5.50
2023-03-12T22:18:13.445Z,2.20
2023-03-12T22:21:25.870Z,2.05
2023-03-12T22:24:35.513Z,2.45
2023-03-12T22:27:45.146Z,3.80
2023-03-12T22:31:00.150Z,3.67
2023-03-12T22:34:09.159Z,2.45
2023-03-12T22:37:20.548Z,8.00
2023-03-12T22:40:29.668Z,2.88
2023-03-12T22:43:38.536Z,4.15
2023-03-12T22:46:48.586Z,3.72
2023-03-12T22:50:00.860Z,12.93
2023-03-12T22:53:11.017Z,3.50
2023-03-12T22:56:21.596Z,9.02
2023-03-12T22:59:31.558Z,18.02
2023-03-12T23:02:43.644Z,9.18
2023-03-12T23:05:55.950Z,13.05
2023-03-12T23:09:08.786Z,4.82
2023-03-12T23:12:14.995Z,6.57
2023-03-12T23:15:20.939Z,17.98
2023-03-12T23:18:24.753Z,10.98
2023-03-12T23:21:27.862Z,13.80
2023-03-12T23:24:32.857Z,11.85
2023-03-12T23:27:36.686Z,6.72
2023-03-12T23:30:40.836Z,12.95
2023-03-12T23:33:45.409Z,4.75
2023-03-12T23:36:51.550Z,9.13
2023-03-12T23:39:56.900Z,11.63
2023-03-12T23:43:01.289Z,7.45
2023-03-12T23:46:06.453Z,9.73
2023-03-12T23:49:11.602Z,10.82
2023-03-12T23:52:16.865Z,6.40
2023-03-12T23:55:24.448Z,5.50
2023-03-12T23:58:31.742Z,4.88
